createdAt,value
2024-01-12T00:00:06.087Z,47.71
2024-01-12T00:02:39.429Z,47.59
2024-01-12T00:05:08.466Z,47.57
2024-01-12T00:07:35.598Z,47.79
2024-01-12T00:10:03.053Z,47.58
2024-01-12T00:12:30.093Z,47.62
2024-01-12T00:14:57.841Z,47.53
2024-01-12T00:17:25.377Z,47.73
2024-01-12T00:19:52.482Z,47.51
2024-01-12T00:22:19.703Z,47.67
2024-01-12T00:24:46.761Z,48.41
2024-01-12T00:27:14.090Z,48.42
2024-01-12T00:29:41.237Z,48.21
2024-01-12T00:32:08.420Z,48.46
2024-01-12T00:34:35.620Z,48.38
2024-01-12T00:37:02.705Z,48.84
2024-01-12T00:39:29.835Z,49.12
2024-01-12T00:41:56.919Z,49.24
2024-01-12T00:44:24.163Z,49.02
2024-01-12T00:46:52.770Z,49.65
2024-01-12T00:49:20.441Z,49.41
2024-01-12T00:51:48.285Z,49.27
2024-01-12T00:54:15.854Z,48.98
2024-01-12T00:56:43.016Z,48.93
2024-01-12T00:59:10.163Z,49.16
2024-01-12T01:01:37.362Z,49.21
2024-01-12T01:04:05.631Z,49.55
2024-01-12T01:06:32.729Z,49.32
2024-01-12T01:09:00.001Z,49.10
2024-01-12T01:11:27.139Z,49.33
2024-01-12T01:13:54.351Z,49.53
2024-01-12T01:16:21.817Z,49.70
2024-01-12T01:18:49.482Z,49.24
2024-01-12T01:21:16.668Z,49.18
2024-01-12T01:23:43.789Z,49.28
2024-01-12T01:26:10.934Z,49.58
2024-01-12T01:28:38.117Z,49.66
2024-01-12T01:31:05.361Z,50.37
2024-01-12T01:33:32.491Z,50.22
2024-01-12T01:35:59.696Z,50.50
2024-01-12T01:38:26.781Z,50.92
2024-01-12T01:40:53.902Z,51.59
2024-01-12T01:43:22.932Z,52.34
2024-01-12T01:45:50.410Z,52.67
2024-01-12T01:48:17.659Z,52.79
2024-01-12T01:50:44.896Z,52.85
2024-01-12T01:53:12.167Z,53.01
2024-01-12T01:55:39.381Z,52.64
2024-01-12T01:58:06.706Z,52.18
2024-01-12T02:00:33.936Z,52.46
2024-01-12T02:03:02.673Z,53.00
2024-01-12T02:05:31.706Z,52.32
2024-01-12T02:07:58.917Z,52.40
2024-01-12T02:10:26.568Z,51.62
2024-01-12T02:12:53.721Z,51.92
2024-01-12T02:15:21.713Z,52.10
2024-01-12T02:17:49.199Z,52.11
2024-01-12T02:20:16.453Z,52.56
2024-01-12T02:22:43.628Z,52.47
2024-01-12T02:25:11.220Z,52.79
2024-01-12T02:27:38.336Z,52.47
2024-01-12T02:30:06.377Z,52.95
2024-01-12T02:32:33.985Z,52.84
2024-01-12T02:35:01.084Z,52.57
2024-01-12T02:37:28.088Z,52.63
2024-01-12T02:39:55.187Z,52.94
2024-01-12T02:42:22.227Z,53.13
2024-01-12T02:44:49.393Z,52.86
2024-01-12T02:47:16.514Z,52.40
2024-01-12T02:49:44.565Z,52.80
2024-01-12T02:52:11.656Z,52.72
2024-01-12T02:54:38.915Z,52.46
2024-01-12T02:57:06.437Z,52.88
2024-01-12T02:59:33.535Z,53.64
2024-01-12T03:02:00.727Z,53.38
2024-01-12T03:04:27.807Z,53.56
2024-01-12T03:06:54.853Z,53.15
2024-01-12T03:09:23.625Z,52.97
2024-01-12T03:11:50.834Z,52.25
2024-01-12T03:14:18.690Z,51.76
2024-01-12T03:16:45.844Z,51.82
2024-01-12T03:19:13.025Z,52.41
2024-01-12T03:21:40.160Z,52.69
2024-01-12T03:24:07.305Z,53.37
2024-01-12T03:26:38.912Z,52.82
2024-01-12T03:29:06.314Z,52.74
2024-01-12T03:31:34.344Z,52.97
2024-01-12T03:34:03.044Z,52.98
2024-01-12T03:36:30.188Z,52.97
2024-01-12T03:38:57.443Z,52.93
2024-01-12T03:41:24.565Z,52.89
2024-01-12T03:43:51.639Z,52.46
2024-01-12T03:46:18.766Z,52.42
2024-01-12T03:48:46.965Z,53.16
2024-01-12T03:51:14.223Z,53.49
2024-01-12T03:53:41.382Z,53.36
2024-01-12T03:56:08.494Z,53.36
2024-01-12T03:58:38.749Z,54.06
2024-01-12T04:01:09.112Z,54.45
2024-01-12T04:03:36.328Z,54.50
2024-01-12T04:06:12.061Z,54.39
2024-01-12T04:08:39.625Z,54.47
2024-01-12T04:11:07.148Z,54.63
2024-01-12T04:13:34.351Z,54.35
2024-01-12T04:16:01.505Z,54.49
2024-01-12T04:18:28.673Z,54.81
2024-01-12T04:20:55.995Z,54.41
2024-01-12T04:23:23.116Z,55.00
2024-01-12T04:25:50.196Z,55.11
2024-01-12T04:28:17.550Z,55.41
2024-01-12T04:30:44.634Z,55.10
2024-01-12T04:33:11.776Z,54.83
2024-01-12T04:35:39.009Z,54.79
2024-01-12T04:38:05.988Z,55.08
2024-01-12T04:40:32.964Z,54.84
2024-01-12T04:43:00.032Z,55.20
2024-01-12T04:45:27.086Z,55.96
2024-01-12T04:47:54.183Z,57.09
2024-01-12T04:50:21.607Z,56.38
2024-01-12T04:52:49.753Z,57.12
2024-01-12T04:55:16.761Z,56.99
2024-01-12T04:57:43.853Z,56.74
2024-01-12T05:00:11.538Z,56.64
2024-01-12T05:02:38.884Z,56.89
2024-01-12T05:05:06.992Z,57.24
2024-01-12T05:07:34.024Z,57.48
2024-01-12T05:10:01.062Z,57.34
2024-01-12T05:12:28.299Z,57.87
2024-01-12T05:14:55.351Z,57.98
2024-01-12T05:17:24.188Z,57.82
2024-01-12T05:19:51.511Z,58.36
2024-01-12T05:22:18.629Z,58.28
2024-01-12T05:24:45.751Z,58.29
2024-01-12T05:27:12.932Z,58.88
2024-01-12T05:29:39.983Z,58.24
2024-01-12T05:32:07.182Z,58.41
2024-01-12T05:34:34.348Z,59.00
2024-01-12T05:37:01.478Z,59.24
2024-01-12T05:39:28.706Z,58.76
2024-01-12T05:41:55.854Z,58.51
2024-01-12T05:44:23.046Z,59.39
2024-01-12T05:46:50.142Z,59.90
2024-01-12T05:49:17.297Z,60.24
2024-01-12T05:51:44.448Z,60.29
2024-01-12T05:54:11.618Z,60.03
2024-01-12T05:56:38.922Z,60.41
2024-01-12T05:59:06.241Z,60.42
2024-01-12T06:01:33.599Z,60.69
2024-01-12T06:04:00.889Z,60.19
2024-01-12T06:06:28.007Z,60.49
2024-01-12T06:08:55.139Z,60.95
2024-01-12T06:11:22.262Z,61.21
2024-01-12T06:13:49.234Z,61.57
2024-01-12T06:16:16.346Z,61.70
2024-01-12T06:18:43.679Z,62.05
2024-01-12T06:21:11.066Z,61.98
2024-01-12T06:23:38.386Z,61.38
2024-01-12T06:26:05.873Z,60.58
2024-01-12T06:28:32.875Z,60.83
2024-01-12T06:31:00.431Z,60.47
2024-01-12T06:33:27.753Z,61.42
2024-01-12T06:35:54.992Z,62.38
2024-01-12T06:38:22.042Z,62.27
2024-01-12T06:40:49.101Z,62.06
2024-01-12T06:43:16.295Z,62.35
2024-01-12T06:45:43.801Z,62.53
2024-01-12T06:48:11.554Z,62.26
2024-01-12T06:50:38.718Z,62.63
2024-01-12T06:53:09.797Z,62.50
2024-01-12T06:55:38.103Z,61.74
2024-01-12T06:58:05.202Z,61.90
2024-01-12T07:00:33.214Z,61.95
2024-01-12T07:03:00.446Z,61.93
2024-01-12T07:05:27.657Z,62.41
2024-01-12T07:07:54.793Z,63.19
2024-01-12T07:10:22.412Z,62.86
2024-01-12T07:12:53.300Z,62.55
2024-01-12T07:15:21.651Z,62.64
2024-01-12T07:17:51.056Z,62.99
2024-01-12T07:20:19.008Z,62.70
2024-01-12T07:22:46.905Z,62.49
2024-01-12T07:25:13.983Z,62.44
2024-01-12T07:27:43.541Z,62.97
2024-01-12T07:30:11.790Z,62.68
2024-01-12T07:32:39.044Z,63.10
2024-01-12T07:35:06.449Z,63.01
2024-01-12T07:37:33.501Z,63.09
2024-01-12T07:40:00.481Z,63.02
2024-01-12T07:42:27.595Z,62.92
2024-01-12T07:44:55.824Z,62.85
2024-01-12T07:47:23.318Z,63.37
2024-01-12T07:49:50.508Z,62.95
2024-01-12T07:52:19.357Z,63.65
2024-01-12T07:54:48.315Z,63.23
2024-01-12T07:57:15.387Z,63.35
2024-01-12T07:59:42.449Z,63.32
2024-01-12T08:02:09.541Z,64.43
2024-01-12T08:04:39.375Z,64.32
2024-01-12T08:07:07.954Z,64.45
2024-01-12T08:09:35.277Z,64.44
2024-01-12T08:12:03.835Z,64.68
2024-01-12T08:14:31.119Z,64.13
2024-01-12T08:16:58.325Z,63.98
2024-01-12T08:19:25.366Z,64.57
2024-01-12T08:21:56.141Z,64.03
2024-01-12T08:24:24.140Z,63.46
2024-01-12T08:26:51.575Z,64.07
2024-01-12T08:29:18.967Z,64.05
2024-01-12T08:31:46.232Z,64.14
2024-01-12T08:34:13.554Z,64.43
2024-01-12T08:36:40.831Z,64.65
2024-01-12T08:39:08.152Z,64.59
2024-01-12T08:41:35.225Z,64.41
2024-01-12T08:44:02.281Z,64.38
2024-01-12T08:46:29.319Z,64.42
2024-01-12T08:48:56.646Z,64.49
2024-01-12T08:51:25.124Z,64.38
2024-01-12T08:53:52.491Z,64.45
2024-01-12T08:56:19.713Z,64.00
2024-01-12T08:58:46.813Z,64.11
2024-01-12T09:01:14.910Z,64.19
2024-01-12T09:03:42.245Z,64.52
2024-01-12T09:06:10.825Z,64.80
2024-01-12T09:08:38.351Z,64.43
2024-01-12T09:11:05.428Z,64.23
2024-01-12T09:13:32.570Z,64.17
2024-01-12T09:15:59.654Z,64.39
2024-01-12T09:18:26.832Z,63.89
2024-01-12T09:20:54.086Z,63.69
2024-01-12T09:23:21.176Z,63.39
2024-01-12T09:25:51.638Z,62.79
2024-01-12T09:28:19.457Z,62.91
2024-01-12T09:30:47.715Z,62.59
2024-01-12T09:33:15.793Z,62.51
2024-01-12T09:35:43.165Z,62.45
2024-01-12T09:38:10.267Z,61.74
2024-01-12T09:40:37.558Z,61.85
2024-01-12T09:43:13.652Z,62.35
2024-01-12T09:45:44.950Z,62.22
2024-01-12T09:48:13.013Z,61.72
2024-01-12T09:50:42.402Z,62.24
2024-01-12T09:53:09.633Z,62.18
2024-01-12T09:55:36.705Z,62.12
2024-01-12T09:58:05.733Z,62.33
2024-01-12T10:00:36.368Z,62.42
2024-01-12T10:03:04.286Z,62.15
2024-01-12T10:05:31.563Z,61.96
2024-01-12T10:07:58.793Z,62.77
2024-01-12T10:10:28.610Z,62.58
2024-01-12T10:12:56.143Z,62.04
2024-01-12T10:15:23.154Z,61.75
2024-01-12T10:17:53.117Z,62.07
2024-01-12T10:20:22.529Z,62.40
2024-01-12T10:22:57.786Z,61.87
2024-01-12T10:25:25.779Z,61.07
2024-01-12T10:27:59.466Z,60.59
2024-01-12T10:30:28.585Z,60.45
2024-01-12T10:32:55.778Z,60.68
2024-01-12T10:35:23.044Z,60.75
2024-01-12T10:37:50.822Z,60.70
2024-01-12T10:40:18.550Z,60.07
2024-01-12T10:42:50.339Z,60.15
2024-01-12T10:45:27.262Z,60.08
2024-01-12T10:48:03.913Z,59.95
2024-01-12T10:50:36.379Z,60.23
2024-01-12T10:53:15.067Z,60.21
2024-01-12T10:55:51.248Z,60.08
2024-01-12T10:58:19.724Z,60.22
2024-01-12T11:00:47.656Z,60.47
2024-01-12T11:03:18.328Z,59.60
2024-01-12T11:05:46.055Z,60.01
2024-01-12T11:08:13.687Z,60.61
2024-01-12T11:10:47.771Z,60.12
2024-01-12T11:13:17.809Z,58.94
2024-01-12T11:15:45.686Z,58.42
2024-01-12T11:18:12.975Z,58.69
2024-01-12T11:20:40.288Z,58.29
2024-01-12T11:23:09.926Z,59.14
2024-01-12T11:25:37.405Z,59.37
2024-01-12T11:28:04.722Z,58.74
2024-01-12T11:30:44.557Z,58.74
2024-01-12T11:33:12.107Z,58.65
2024-01-12T11:35:40.913Z,58.06
2024-01-12T11:38:13.119Z,58.05
2024-01-12T11:40:45.277Z,58.58
2024-01-12T11:43:19.788Z,59.10
2024-01-12T11:45:48.810Z,59.00
2024-01-12T11:48:16.798Z,58.99
2024-01-12T11:50:44.235Z,58.62
2024-01-12T11:53:11.289Z,58.74
2024-01-12T11:55:40.571Z,59.08
2024-01-12T11:58:07.617Z,59.08
2024-01-12T12:00:34.787Z,59.25
2024-01-12T12:03:01.900Z,58.79
2024-01-12T12:05:30.557Z,59.25
2024-01-12T12:07:57.888Z,59.55
2024-01-12T12:10:33.346Z,59.91
2024-01-12T12:15:53.243Z,59.84
2024-01-12T12:18:20.650Z,59.02
2024-01-12T12:20:49.291Z,59.23
2024-01-12T12:31:49.757Z,58.89
2024-01-12T12:34:18.237Z,58.84
2024-01-12T12:36:45.461Z,59.50
2024-01-12T12:39:12.714Z,59.36
2024-01-12T12:41:40.258Z,59.61
2024-01-12T12:44:07.461Z,59.56
2024-01-12T12:46:34.686Z,59.32
2024-01-12T12:49:02.023Z,58.89
2024-01-12T12:54:22.181Z,58.84
2024-01-12T12:56:50.647Z,58.69
2024-01-12T12:59:17.821Z,58.78
2024-01-12T13:01:44.951Z,59.32
2024-01-12T13:04:13.966Z,58.81
2024-01-12T13:06:43.883Z,59.17
2024-01-12T13:09:11.280Z,59.41
2024-01-12T13:11:38.414Z,59.62
2024-01-12T13:14:05.791Z,60.28
2024-01-12T13:16:33.246Z,60.46
2024-01-12T13:19:10.873Z,60.06
2024-01-12T13:21:45.379Z,59.61
2024-01-12T13:24:13.227Z,59.93
2024-01-12T13:26:40.389Z,59.80
2024-01-12T13:29:09.827Z,60.55
2024-01-12T13:31:43.269Z,60.81
2024-01-12T13:34:13.425Z,61.13
2024-01-12T13:36:45.795Z,60.28
2024-01-12T13:39:12.972Z,60.57
2024-01-12T13:41:41.267Z,60.81
2024-01-12T13:44:08.404Z,60.89
2024-01-12T13:46:35.520Z,61.41
2024-01-12T13:49:02.929Z,61.10
2024-01-12T13:51:30.266Z,60.78
2024-01-12T13:53:57.936Z,61.00
2024-01-12T13:56:24.984Z,61.03
2024-01-12T13:58:52.033Z,61.29
2024-01-12T14:01:19.117Z,61.02
2024-01-12T14:03:49.069Z,60.71
2024-01-12T14:06:16.872Z,60.16
2024-01-12T14:08:44.888Z,60.46
2024-01-12T14:11:12.904Z,60.09
2024-01-12T14:13:40.095Z,60.58
2024-01-12T14:16:07.781Z,61.02
2024-01-12T14:18:35.087Z,61.32
2024-01-12T14:21:02.206Z,61.80
2024-01-12T14:23:29.401Z,61.87
2024-01-12T14:25:56.581Z,61.94
2024-01-12T14:28:32.004Z,61.63
2024-01-12T14:31:02.388Z,62.43
2024-01-12T14:33:34.681Z,61.94
2024-01-12T14:36:06.155Z,61.58
2024-01-12T14:38:33.421Z,61.12
2024-01-12T14:41:00.481Z,61.39
2024-01-12T14:43:27.924Z,61.68
2024-01-12T14:45:55.013Z,62.42
2024-01-12T14:48:25.604Z,62.28
2024-01-12T14:50:53.340Z,62.71
2024-01-12T14:53:20.505Z,63.31
2024-01-12T14:55:48.516Z,63.63
2024-01-12T14:58:15.509Z,63.88
2024-01-12T15:00:42.704Z,64.07
2024-01-12T15:03:10.043Z,64.37
2024-01-12T15:05:37.989Z,63.91
2024-01-12T15:08:05.604Z,63.72
2024-01-12T15:10:32.784Z,63.33
2024-01-12T15:12:59.945Z,62.63
2024-01-12T15:15:27.560Z,62.84
2024-01-12T15:17:54.851Z,62.78
2024-01-12T15:20:22.273Z,63.06
2024-01-12T15:22:49.448Z,63.00
2024-01-12T15:25:16.609Z,62.64
2024-01-12T15:27:44.547Z,62.86
2024-01-12T15:30:12.245Z,63.84
2024-01-12T15:32:39.804Z,64.61
2024-01-12T15:35:07.584Z,64.59
2024-01-12T15:37:34.673Z,64.63
2024-01-12T15:40:02.016Z,65.37
2024-01-12T15:42:35.385Z,66.25
2024-01-12T15:45:09.662Z,67.21
2024-01-12T15:47:37.801Z,67.07
2024-01-12T15:50:05.962Z,65.99
2024-01-12T15:52:33.107Z,65.97
2024-01-12T15:55:00.248Z,65.91
2024-01-12T15:57:27.373Z,64.84
2024-01-12T15:59:54.531Z,64.98
2024-01-12T16:02:21.661Z,65.45
2024-01-12T16:07:43.933Z,64.91
2024-01-12T16:10:11.432Z,63.94
2024-01-12T16:12:38.542Z,63.65
2024-01-12T16:15:08.727Z,63.65
2024-01-12T16:17:36.486Z,63.41
2024-01-12T16:20:04.048Z,63.62
2024-01-12T16:22:31.247Z,63.79
2024-01-12T16:24:59.037Z,63.64
2024-01-12T16:27:27.967Z,64.00
2024-01-12T16:29:55.350Z,63.17
2024-01-12T16:32:22.558Z,63.32
2024-01-12T16:34:49.705Z,63.15
2024-01-12T16:37:16.829Z,63.85
2024-01-12T16:39:45.144Z,64.28
2024-01-12T16:42:13.134Z,64.79
2024-01-12T16:44:40.622Z,64.46
2024-01-12T16:47:07.692Z,64.49
2024-01-12T16:49:38.133Z,64.42
2024-01-12T16:52:05.761Z,64.55
2024-01-12T16:54:32.806Z,64.19
2024-01-12T16:57:00.023Z,64.03
2024-01-12T16:59:30.756Z,63.67
2024-01-12T17:01:57.840Z,64.31
2024-01-12T17:04:24.999Z,63.99
2024-01-12T17:06:55.955Z,63.70
2024-01-12T17:09:23.827Z,63.83
2024-01-12T17:11:51.123Z,63.39
2024-01-12T17:14:18.273Z,64.09
2024-01-12T17:16:47.451Z,63.99
2024-01-12T17:19:14.736Z,63.97
2024-01-12T17:21:41.894Z,63.76
2024-01-12T17:24:10.437Z,64.09
2024-01-12T17:26:39.572Z,63.79
2024-01-12T17:29:06.790Z,63.18
2024-01-12T17:31:34.006Z,63.80
2024-01-12T17:34:01.509Z,63.32
2024-01-12T17:36:28.591Z,63.37
2024-01-12T17:38:55.817Z,63.66
2024-01-12T17:41:24.725Z,63.71
2024-01-12T17:43:52.456Z,64.04
2024-01-12T17:46:19.835Z,63.96
2024-01-12T17:48:47.454Z,63.37
2024-01-12T17:51:16.890Z,63.35
2024-01-12T17:53:45.031Z,63.08
2024-01-12T17:56:12.951Z,62.81
2024-01-12T17:58:40.474Z,62.49
2024-01-12T18:01:08.404Z,62.98
2024-01-12T18:03:35.695Z,63.50
2024-01-12T18:06:03.900Z,63.58
2024-01-12T18:08:31.213Z,63.48
2024-01-12T18:10:58.322Z,63.61
2024-01-12T18:13:25.670Z,63.38
2024-01-12T18:15:52.840Z,63.63
2024-01-12T18:18:20.309Z,63.68
2024-01-12T18:20:47.646Z,64.41
2024-01-12T18:23:14.833Z,65.16
2024-01-12T18:25:41.875Z,65.09
2024-01-12T18:28:08.991Z,64.94
2024-01-12T18:30:36.143Z,65.17
2024-01-12T18:33:04.768Z,64.90
2024-01-12T18:35:32.293Z,64.89
2024-01-12T18:37:59.438Z,64.51
2024-01-12T18:40:26.505Z,65.11
2024-01-12T18:42:53.649Z,65.29
2024-01-12T18:45:20.744Z,65.40
2024-01-12T18:47:48.128Z,65.05
2024-01-12T18:50:15.317Z,65.25
2024-01-12T18:52:45.360Z,64.92
2024-01-12T18:55:12.361Z,65.42
2024-01-12T18:57:39.469Z,65.35
2024-01-12T19:00:07.341Z,65.58
2024-01-12T19:02:34.488Z,66.10
2024-01-12T19:05:01.744Z,66.37
2024-01-12T19:07:29.212Z,66.42
2024-01-12T19:09:56.360Z,65.30
2024-01-12T19:12:23.951Z,64.58
2024-01-12T19:14:51.173Z,63.79
2024-01-12T19:17:18.266Z,63.80
2024-01-12T19:19:45.976Z,64.12
2024-01-12T19:22:13.141Z,64.23
2024-01-12T19:24:45.129Z,64.63
2024-01-12T19:27:13.139Z,64.96
2024-01-12T19:29:40.347Z,65.47
2024-01-12T19:32:11.779Z,65.55
2024-01-12T19:34:42.595Z,65.16
2024-01-12T19:37:10.127Z,64.88
2024-01-12T19:39:37.825Z,64.87
2024-01-12T19:42:05.636Z,65.21
2024-01-12T19:44:32.775Z,65.68
2024-01-12T19:46:59.787Z,65.12
2024-01-12T19:49:27.215Z,65.65
2024-01-12T19:51:54.251Z,65.82
2024-01-12T19:54:21.340Z,65.21
2024-01-12T19:56:48.560Z,65.65
2024-01-12T19:59:16.872Z,65.64
2024-01-12T20:01:44.960Z,65.82
2024-01-12T20:04:12.556Z,66.83
2024-01-12T20:06:39.949Z,67.67
2024-01-12T20:09:07.232Z,67.49
2024-01-12T20:11:34.739Z,67.74
2024-01-12T20:14:02.112Z,67.67
2024-01-12T20:16:31.343Z,66.89
2024-01-12T20:18:59.922Z,66.21
2024-01-12T20:21:28.690Z,65.66
2024-01-12T20:23:55.988Z,65.80
2024-01-12T20:26:24.724Z,65.26
2024-01-12T20:28:52.352Z,64.94
2024-01-12T20:31:19.597Z,65.16
2024-01-12T20:33:47.246Z,65.49
2024-01-12T20:36:14.684Z,64.87
2024-01-12T20:38:41.787Z,64.42
2024-01-12T20:41:09.268Z,63.56
2024-01-12T20:43:36.325Z,63.40
2024-01-12T20:46:03.485Z,64.09
2024-01-12T20:48:30.810Z,64.49
2024-01-12T20:50:58.895Z,64.10
2024-01-12T20:53:26.078Z,64.33
2024-01-12T20:55:53.164Z,64.82
2024-01-12T20:58:20.401Z,64.51
2024-01-12T21:00:47.713Z,63.62
2024-01-12T21:03:15.034Z,63.50
2024-01-12T21:05:42.704Z,63.67
2024-01-12T21:08:09.876Z,64.02
2024-01-12T21:10:37.010Z,64.16
2024-01-12T21:13:04.230Z,63.90
2024-01-12T21:15:32.728Z,64.58
2024-01-12T21:18:00.588Z,64.41
2024-01-12T21:20:27.758Z,64.45
2024-01-12T21:22:54.813Z,63.48
2024-01-12T21:25:22.184Z,63.59
2024-01-12T21:27:49.227Z,62.76
2024-01-12T21:30:16.485Z,63.23
2024-01-12T21:32:43.850Z,63.36
2024-01-12T21:35:11.117Z,63.61
2024-01-12T21:37:38.192Z,63.77
2024-01-12T21:40:07.304Z,63.96
2024-01-12T21:42:34.419Z,63.46
2024-01-12T21:45:01.561Z,63.59
2024-01-12T21:47:28.923Z,63.89
2024-01-12T21:49:56.185Z,63.97
2024-01-12T21:52:23.238Z,64.27
2024-01-12T21:54:50.439Z,64.38
2024-01-12T21:57:17.544Z,64.59
2024-01-12T21:59:44.834Z,64.42
2024-01-12T22:02:12.050Z,64.76
2024-01-12T22:04:39.094Z,65.27
2024-01-12T22:07:06.400Z,66.02
2024-01-12T22:09:33.584Z,66.12
2024-01-12T22:12:00.764Z,66.66
2024-01-12T22:14:27.832Z,66.58
2024-01-12T22:16:56.028Z,66.93
2024-01-12T22:19:23.411Z,66.56
2024-01-12T22:21:51.024Z,66.65
2024-01-12T22:24:18.808Z,66.23
2024-01-12T22:26:46.024Z,65.92
2024-01-12T22:29:14.024Z,65.62
2024-01-12T22:31:41.198Z,65.95
2024-01-12T22:34:08.360Z,66.13
2024-01-12T22:36:35.879Z,65.94
2024-01-12T22:39:03.039Z,66.15
2024-01-12T22:41:30.124Z,66.66
2024-01-12T22:43:57.168Z,66.81
2024-01-12T22:46:24.284Z,66.61
2024-01-12T22:48:51.438Z,65.81
2024-01-12T22:51:18.557Z,66.48
2024-01-12T22:53:45.654Z,67.19
2024-01-12T22:56:14.015Z,66.94
2024-01-12T22:58:41.722Z,67.12
2024-01-12T23:01:08.842Z,66.83
2024-01-12T23:03:36.036Z,66.61
2024-01-12T23:06:03.593Z,66.51
2024-01-12T23:08:30.774Z,67.00
2024-01-12T23:10:57.812Z,67.24
2024-01-12T23:13:24.905Z,67.57
2024-01-12T23:15:52.036Z,67.57
2024-01-12T23:18:19.394Z,67.83
2024-01-12T23:20:46.620Z,68.07
2024-01-12T23:23:13.638Z,67.78
2024-01-12T23:25:40.627Z,67.09
2024-01-12T23:28:07.810Z,65.64
2024-01-12T23:30:35.139Z,65.80
2024-01-12T23:33:02.480Z,65.85
2024-01-12T23:35:29.788Z,66.65
2024-01-12T23:37:56.860Z,67.02
2024-01-12T23:40:23.937Z,65.96
2024-01-12T23:42:50.976Z,64.99
2024-01-12T23:45:18.069Z,64.69
2024-01-12T23:47:46.008Z,65.23
2024-01-12T23:50:13.642Z,64.55
2024-01-12T23:52:40.658Z,64.00
2024-01-12T23:55:11.224Z,64.63
2024-01-12T23:57:38.290Z,64.93
